Nearby METAR Reports

 

KBJC - Broomfield/Jeffc, Colorado, USA
Distance from station: NNW 11mi, 17km
Updated: Sat, 11-Jul-2020 4:12am MDT
Clear
Clear
 Wind from NNW
Wind: NNW 9 mph , 15 km/h
Temperature: 68°F , 20°C
Dew Point: 45°F , 7°C
Humidity: 43%
Barometer: 30.34 inHg , 1027.4 hPa
Clouds: Clear
Visibility: 10 miles , 16 km
2020/07/11 10:12 KBJC 111012Z AUTO 33008KT 10SM CLR 20/07 A3034 RMK AO2
KBKF - Buckley Angb/Den, Colorado, USA
Distance from station: E 16mi, 25km
Updated: Sat, 11-Jul-2020 3:58am MDT
Few Clouds
Few Clouds
 Wind from NW
Wind: NW 9 mph , 15 km/h
Temperature: 64°F , 18°C
Dew Point: 48°F , 9°C
Humidity: 56%
Barometer: 30.33 inHg , 1027.1 hPa
Clouds: Few Clouds
Visibility: 10 miles , 16 km
Cloud details: Few Clouds 22000 ft
2020/07/11 09:58 KBKF 110958Z 31008KT 10SM FEW220 18/09 A3033 RMK AO2A SLP183 T01810092
 
KAPA - Denver/Arapahoe, Colorado, USA
Distance from station: SE 16mi, 26km
Updated: Sat, 11-Jul-2020 3:53am MDT
Few Clouds
Few Clouds
 Wind from NW
Wind: NW 9 mph , 15 km/h
Temperature: 68°F , 20°C
Dew Point: 48°F , 9°C
Humidity: 49%
Barometer: 30.34 inHg , 1027.4 hPa
Clouds: Few Clouds
Visibility: 10 miles , 16 km
Cloud details: Few Clouds 22000 ft
2020/07/11 09:53 KAPA 110953Z 32008KT 10SM FEW220 20/09 A3034 RMK AO2 SLP180 T02000089
KEIK - Erie Muni, Colorado, USA
Distance from station: N 18mi, 29km
Updated: Sat, 11-Jul-2020 4:11am MDT
Clear
Clear
 Wind from NNW
Wind: NNW 6 mph , 9 km/h
Temperature: 66°F , 19°C
Dew Point: 46°F , 8°C
Humidity: 49%
Barometer: 30.36 inHg , 1028.1 hPa
Clouds: Clear
Visibility: 10 miles , 16 km
2020/07/11 10:11 KEIK 111011Z AUTO 33005KT 10SM CLR 19/08 A3036 RMK AO2 T01870075
 
KBDU - Boulder Muni, Colorado, USA
Distance from station: NNW 22mi, 35km
Updated: Sat, 11-Jul-2020 4:12am MDT
Clear
Clear
 Wind from N
Wind: N 5 mph , 7 km/h
Temperature: 64°F , 18°C
Dew Point: 46°F , 8°C
Humidity: 52%
Barometer: 30.32 inHg , 1026.8 hPa
Clouds: Clear
Visibility: 10 miles , 16 km
2020/07/11 10:12 KBDU 111012Z AUTO 35004KT 10SM CLR 18/08 A3032 RMK AO2
KDEN - Denver (dia), Colorado, USA
Distance from station: ENE 22mi, 35km
Updated: Sat, 11-Jul-2020 3:53am MDT
Few Clouds
Few Clouds
 Wind from WNW
Wind: WNW 13 mph , 20 km/h
Temperature: 66°F , 19°C
Dew Point: 48°F , 9°C
Humidity: 52%
Barometer: 30.30 inHg , 1026.1 hPa
Clouds: Few Clouds
Visibility: 10 miles , 16 km
Cloud details: Few Clouds 22000 ft
2020/07/11 09:53 KDEN 110953Z 30011KT 10SM FEW220 19/09 A3030 RMK AO2 SLP164 T01940094
 
KFTG - Denver F. Range, Colorado, USA
Distance from station: E 26mi, 42km
Updated: Wed, 29-Jan-2020 9:55pm MST
NOT Current
Overcast
Overcast
 Wind from W
Wind: W 7 mph , 11 km/h
Temperature: 30°F , -1°C
Wind Chill: 23°F , -5°C
Dew Point: 28°F , -2°C
Humidity: 93%
Barometer: 30.06 inHg , 1017.9 hPa
Clouds: Overcast
Visibility: 10 miles , 16 km
Cloud details: Partly cloudy 1300 ft
Mostly cloudy 2300 ft
Overcast 6000 ft
2020/01/30 04:55 KFTG 300455Z AUTO 26006KT 10SM SCT013 BKN023 OVC060 M01/M02 A3006 RMK AO2 T10111023
KLMO - Longmont/Vbrand, Colorado, USA
Distance from station: NNW 29mi, 47km
Updated: Sat, 11-Jul-2020 4:15am MDT
Clear
Clear
 Wind from WNW
Wind: WNW 6 mph , 9 km/h
Temperature: 61°F , 16°C
Dew Point: 46°F , 8°C
Humidity: 59%
Barometer: 30.32 inHg , 1026.8 hPa
Clouds: Clear
Visibility: 10 miles , 16 km
2020/07/11 10:15 KLMO 111015Z AUTO 30005KT 10SM CLR 16/08 A3032 RMK AO2 T01600082
 
K0CO - Berthoud Pass, Colorado, USA
Distance from station: W 39mi, 62km
Updated: Sat, 11-Jul-2020 4:06am MDT
Clear
Clear
 Wind from NW
Wind: NW 13 mph , 20 km/h
Temperature: 45°F , 7°C
Wind Chill: 39°F , 4°C
Dew Point: 30°F , -1°C
Humidity: 57%
Barometer: 30.83 inHg , 1044 hPa
Clouds: Clear
Visibility: 10 miles , 16 km
2020/07/11 10:06 K0CO 111006Z AUTO 31011KT 10SM CLR 07/M01 A3083 RMK AO2 TSNO PWINO
KMNH - Monument/Elbert, Colorado, USA
Distance from station: SSE 43mi, 68km
Updated: Sat, 11-Jul-2020 4:06am MDT
Clear
Clear
 Wind from WNW
Wind: WNW 10 mph , 17 km/h
Temperature: 57°F , 14°C
Dew Point: 41°F , 5°C
Humidity: 55%
Barometer: 30.42 inHg , 1030.1 hPa
Clouds: Clear
Visibility: 10 miles , 16 km
2020/07/11 10:06 KMNH 111006Z AUTO 30009KT 10SM CLR 14/05 A3042 RMK AO2
 
KFNL - Ft Collins/Lovel, Colorado, USA
Distance from station: N 48mi, 78km
Updated: Sat, 11-Jul-2020 3:56am MDT
Clear
Clear
 Wind from N
Wind: N 10 mph , 17 km/h
Temperature: 66°F , 19°C
Dew Point: 48°F , 9°C
Humidity: 52%
Barometer: 30.29 inHg , 1025.7 hPa
Clouds: Clear
Visibility: 10 miles , 16 km
2020/07/11 09:56 KFNL 110956Z AUTO 35009KT 10SM CLR 19/09 A3029 RMK AO2 SLP178 T01940094